sensor_id;sensor_type;location;lat;lon;timestamp;P1;durP1;ratioP1;P2;durP2;ratioP2
19735;SDS011;32064;49.310;8.646;2023-05-15T00:01:04;0.60;;;0.60;;
19735;SDS011;32064;49.310;8.646;2023-05-15T00:03:29;0.57;;;0.57;;
19735;SDS011;32064;49.310;8.646;2023-05-15T00:05:55;1.10;;;0.85;;
19735;SDS011;32064;49.310;8.646;2023-05-15T00:08:21;0.95;;;0.80;;
19735;SDS011;32064;49.310;8.646;2023-05-15T00:10:46;0.30;;;0.30;;
19735;SDS011;32064;49.310;8.646;2023-05-15T00:13:12;1.08;;;0.77;;
19735;SDS011;32064;49.310;8.646;2023-05-15T00:15:37;1.17;;;0.80;;
19735;SDS011;32064;49.310;8.646;2023-05-15T00:18:03;0.50;;;0.50;;
19735;SDS011;32064;49.310;8.646;2023-05-15T00:20:28;4.20;;;1.63;;
19735;SDS011;32064;49.310;8.646;2023-05-15T00:22:54;0.80;;;0.80;;
19735;SDS011;32064;49.310;8.646;2023-05-15T00:25:19;0.57;;;0.57;;
19735;SDS011;32064;49.310;8.646;2023-05-15T00:27:45;0.65;;;0.65;;
19735;SDS011;32064;49.310;8.646;2023-05-15T00:30:10;0.90;;;0.85;;
19735;SDS011;32064;49.310;8.646;2023-05-15T00:32:36;1.38;;;1.25;;
19735;SDS011;32064;49.310;8.646;2023-05-15T00:35:02;0.95;;;0.88;;
19735;SDS011;32064;49.310;8.646;2023-05-15T00:37:28;1.15;;;1.08;;
19735;SDS011;32064;49.310;8.646;2023-05-15T00:39:54;1.33;;;1.23;;
19735;SDS011;32064;49.310;8.646;2023-05-15T00:42:19;0.95;;;0.90;;
19735;SDS011;32064;49.310;8.646;2023-05-15T00:44:47;0.55;;;0.55;;
19735;SDS011;32064;49.310;8.646;2023-05-15T00:47:13;0.68;;;0.68;;
19735;SDS011;32064;49.310;8.646;2023-05-15T00:49:40;0.57;;;0.57;;
19735;SDS011;32064;49.310;8.646;2023-05-15T00:52:06;0.57;;;0.57;;
19735;SDS011;32064;49.310;8.646;2023-05-15T00:54:32;1.08;;;1.00;;
19735;SDS011;32064;49.310;8.646;2023-05-15T00:56:58;0.63;;;0.63;;
19735;SDS011;32064;49.310;8.646;2023-05-15T00:59:27;0.93;;;0.93;;
19735;SDS011;32064;49.310;8.646;2023-05-15T01:01:54;0.90;;;0.90;;
19735;SDS011;32064;49.310;8.646;2023-05-15T01:04:19;0.70;;;0.70;;
19735;SDS011;32064;49.310;8.646;2023-05-15T01:06:45;0.40;;;0.40;;
19735;SDS011;32064;49.310;8.646;2023-05-15T01:09:12;3.00;;;1.23;;
19735;SDS011;32064;49.310;8.646;2023-05-15T01:11:39;0.60;;;0.60;;
19735;SDS011;32064;49.310;8.646;2023-05-15T01:14:06;1.30;;;0.88;;
19735;SDS011;32064;49.310;8.646;2023-05-15T01:16:33;1.17;;;1.08;;
19735;SDS011;32064;49.310;8.646;2023-05-15T01:19:00;0.75;;;0.75;;
19735;SDS011;32064;49.310;8.646;2023-05-15T01:21:43;0.50;;;0.50;;
19735;SDS011;32064;49.310;8.646;2023-05-15T01:38:21;0.57;;;0.57;;
19735;SDS011;32064;49.310;8.646;2023-05-15T01:41:05;0.82;;;0.70;;
19735;SDS011;32064;49.310;8.646;2023-05-15T01:43:32;0.80;;;0.80;;
19735;SDS011;32064;49.310;8.646;2023-05-15T01:46:02;0.85;;;0.80;;
19735;SDS011;32064;49.310;8.646;2023-05-15T01:48:30;1.65;;;1.13;;
19735;SDS011;32064;49.310;8.646;2023-05-15T01:51:00;0.77;;;0.77;;
19735;SDS011;32064;49.310;8.646;2023-05-15T01:53:29;0.57;;;0.57;;
19735;SDS011;32064;49.310;8.646;2023-05-15T01:55:56;0.73;;;0.73;;
19735;SDS011;32064;49.310;8.646;2023-05-15T01:58:23;1.38;;;1.25;;
19735;SDS011;32064;49.310;8.646;2023-05-15T02:00:50;1.35;;;1.00;;
19735;SDS011;32064;49.310;8.646;2023-05-15T02:03:17;0.85;;;0.77;;
19735;SDS011;32064;49.310;8.646;2023-05-15T02:05:43;1.13;;;0.60;;
19735;SDS011;32064;49.310;8.646;2023-05-15T02:08:09;0.75;;;0.75;;
19735;SDS011;32064;49.310;8.646;2023-05-15T02:10:36;0.70;;;0.70;;
19735;SDS011;32064;49.310;8.646;2023-05-15T02:13:04;0.90;;;0.70;;
19735;SDS011;32064;49.310;8.646;2023-05-15T02:15:32;0.47;;;0.47;;
19735;SDS011;32064;49.310;8.646;2023-05-15T02:17:58;0.47;;;0.47;;
19735;SDS011;32064;49.310;8.646;2023-05-15T02:20:23;1.40;;;1.00;;
19735;SDS011;32064;49.310;8.646;2023-05-15T02:22:49;0.90;;;0.70;;
19735;SDS011;32064;49.310;8.646;2023-05-15T02:25:14;0.80;;;0.80;;
19735;SDS011;32064;49.310;8.646;2023-05-15T02:27:44;0.60;;;0.60;;
19735;SDS011;32064;49.310;8.646;2023-05-15T02:35:52;0.67;;;0.67;;
19735;SDS011;32064;49.310;8.646;2023-05-15T02:38:46;7.73;;;1.10;;
19735;SDS011;32064;49.310;8.646;2023-05-15T02:41:13;1.45;;;0.77;;
19735;SDS011;32064;49.310;8.646;2023-05-15T02:43:41;1.97;;;1.13;;
19735;SDS011;32064;49.310;8.646;2023-05-15T02:46:07;0.82;;;0.77;;
19735;SDS011;32064;49.310;8.646;2023-05-15T02:48:34;1.07;;;0.63;;
19735;SDS011;32064;49.310;8.646;2023-05-15T02:51:01;1.42;;;0.77;;
19735;SDS011;32064;49.310;8.646;2023-05-15T02:53:27;0.75;;;0.75;;
19735;SDS011;32064;49.310;8.646;2023-05-15T02:55:53;1.73;;;0.95;;
19735;SDS011;32064;49.310;8.646;2023-05-15T02:58:19;0.50;;;0.50;;
19735;SDS011;32064;49.310;8.646;2023-05-15T03:00:44;0.50;;;0.50;;
19735;SDS011;32064;49.310;8.646;2023-05-15T03:03:09;0.70;;;0.70;;
19735;SDS011;32064;49.310;8.646;2023-05-15T03:05:35;0.70;;;0.70;;
19735;SDS011;32064;49.310;8.646;2023-05-15T03:08:00;0.80;;;0.80;;
19735;SDS011;32064;49.310;8.646;2023-05-15T03:10:26;0.50;;;0.50;;
19735;SDS011;32064;49.310;8.646;2023-05-15T03:12:51;0.70;;;0.70;;
19735;SDS011;32064;49.310;8.646;2023-05-15T03:15:16;1.10;;;1.10;;
19735;SDS011;32064;49.310;8.646;2023-05-15T03:17:43;0.67;;;0.67;;
19735;SDS011;32064;49.310;8.646;2023-05-15T03:20:08;0.70;;;0.63;;
19735;SDS011;32064;49.310;8.646;2023-05-15T03:22:35;2.63;;;0.95;;
19735;SDS011;32064;49.310;8.646;2023-05-15T03:25:00;0.77;;;0.77;;
19735;SDS011;32064;49.310;8.646;2023-05-15T03:27:26;0.87;;;0.87;;
19735;SDS011;32064;49.310;8.646;2023-05-15T03:29:52;1.73;;;0.70;;
19735;SDS011;32064;49.310;8.646;2023-05-15T03:32:17;0.73;;;0.73;;
19735;SDS011;32064;49.310;8.646;2023-05-15T03:34:42;0.77;;;0.77;;
19735;SDS011;32064;49.310;8.646;2023-05-15T03:37:08;1.08;;;1.08;;
19735;SDS011;32064;49.310;8.646;2023-05-15T03:39:33;3.83;;;1.13;;
19735;SDS011;32064;49.310;8.646;2023-05-15T03:41:59;0.80;;;0.80;;
19735;SDS011;32064;49.310;8.646;2023-05-15T03:44:24;0.60;;;0.60;;
19735;SDS011;32064;49.310;8.646;2023-05-15T03:46:49;1.60;;;1.03;;
19735;SDS011;32064;49.310;8.646;2023-05-15T03:49:15;0.93;;;0.80;;
19735;SDS011;32064;49.310;8.646;2023-05-15T03:51:40;0.83;;;0.83;;
19735;SDS011;32064;49.310;8.646;2023-05-15T03:54:05;0.70;;;0.70;;
19735;SDS011;32064;49.310;8.646;2023-05-15T03:56:31;0.60;;;0.60;;
19735;SDS011;32064;49.310;8.646;2023-05-15T03:58:57;1.07;;;0.97;;
19735;SDS011;32064;49.310;8.646;2023-05-15T04:01:23;0.70;;;0.70;;
19735;SDS011;32064;49.310;8.646;2023-05-15T04:03:48;1.10;;;1.00;;
19735;SDS011;32064;49.310;8.646;2023-05-15T04:06:14;1.15;;;0.80;;
19735;SDS011;32064;49.310;8.646;2023-05-15T04:08:39;0.70;;;0.70;;
19735;SDS011;32064;49.310;8.646;2023-05-15T04:11:05;1.20;;;1.03;;
19735;SDS011;32064;49.310;8.646;2023-05-15T04:13:31;1.23;;;1.13;;
19735;SDS011;32064;49.310;8.646;2023-05-15T04:15:56;1.10;;;1.00;;
19735;SDS011;32064;49.310;8.646;2023-05-15T04:18:23;0.87;;;0.87;;
19735;SDS011;32064;49.310;8.646;2023-05-15T04:20:49;1.13;;;1.13;;
19735;SDS011;32064;49.310;8.646;2023-05-15T04:23:15;1.15;;;1.05;;
19735;SDS011;32064;49.310;8.646;2023-05-15T04:25:41;1.07;;;0.97;;
19735;SDS011;32064;49.310;8.646;2023-05-15T04:28:10;1.25;;;1.20;;
19735;SDS011;32064;49.310;8.646;2023-05-15T04:30:36;1.17;;;1.08;;
19735;SDS011;32064;49.310;8.646;2023-05-15T04:33:02;0.73;;;0.73;;
19735;SDS011;32064;49.310;8.646;2023-05-15T04:35:29;1.00;;;1.00;;
19735;SDS011;32064;49.310;8.646;2023-05-15T04:37:54;1.25;;;1.10;;
19735;SDS011;32064;49.310;8.646;2023-05-15T04:40:20;0.83;;;0.83;;
19735;SDS011;32064;49.310;8.646;2023-05-15T04:42:45;1.30;;;1.20;;
19735;SDS011;32064;49.310;8.646;2023-05-15T04:45:10;1.10;;;1.00;;
19735;SDS011;32064;49.310;8.646;2023-05-15T04:47:36;1.20;;;1.10;;
19735;SDS011;32064;49.310;8.646;2023-05-15T04:50:02;1.60;;;1.50;;
19735;SDS011;32064;49.310;8.646;2023-05-15T04:52:27;1.23;;;1.13;;
19735;SDS011;32064;49.310;8.646;2023-05-15T04:54:53;1.40;;;1.30;;
19735;SDS011;32064;49.310;8.646;2023-05-15T04:57:19;1.53;;;1.13;;
19735;SDS011;32064;49.310;8.646;2023-05-15T04:59:45;1.67;;;1.30;;
19735;SDS011;32064;49.310;8.646;2023-05-15T05:02:11;1.00;;;1.00;;
19735;SDS011;32064;49.310;8.646;2023-05-15T05:04:36;1.57;;;1.30;;
19735;SDS011;32064;49.310;8.646;2023-05-15T05:07:02;1.67;;;1.57;;
19735;SDS011;32064;49.310;8.646;2023-05-15T05:09:30;1.20;;;0.85;;
19735;SDS011;32064;49.310;8.646;2023-05-15T05:11:57;1.97;;;1.77;;
19735;SDS011;32064;49.310;8.646;2023-05-15T05:14:23;1.30;;;1.23;;
19735;SDS011;32064;49.310;8.646;2023-05-15T05:16:48;1.10;;;1.00;;
19735;SDS011;32064;49.310;8.646;2023-05-15T05:19:14;1.10;;;1.00;;
19735;SDS011;32064;49.310;8.646;2023-05-15T05:21:39;1.47;;;1.00;;
19735;SDS011;32064;49.310;8.646;2023-05-15T05:24:04;1.73;;;1.58;;
19735;SDS011;32064;49.310;8.646;2023-05-15T05:26:30;2.13;;;1.55;;
19735;SDS011;32064;49.310;8.646;2023-05-15T05:28:55;1.52;;;1.42;;
19735;SDS011;32064;49.310;8.646;2023-05-15T05:31:21;1.75;;;1.65;;
19735;SDS011;32064;49.310;8.646;2023-05-15T05:33:47;1.92;;;1.75;;
19735;SDS011;32064;49.310;8.646;2023-05-15T05:36:13;1.48;;;1.10;;
19735;SDS011;32064;49.310;8.646;2023-05-15T05:38:39;0.93;;;0.93;;
19735;SDS011;32064;49.310;8.646;2023-05-15T05:41:04;1.40;;;1.27;;
19735;SDS011;32064;49.310;8.646;2023-05-15T05:43:30;1.77;;;1.67;;
19735;SDS011;32064;49.310;8.646;2023-05-15T05:45:55;0.93;;;0.93;;
19735;SDS011;32064;49.310;8.646;2023-05-15T05:48:21;1.55;;;1.25;;
19735;SDS011;32064;49.310;8.646;2023-05-15T05:50:46;1.50;;;1.30;;
19735;SDS011;32064;49.310;8.646;2023-05-15T05:53:12;1.33;;;1.23;;
19735;SDS011;32064;49.310;8.646;2023-05-15T05:55:37;0.88;;;0.88;;
19735;SDS011;32064;49.310;8.646;2023-05-15T05:58:03;1.58;;;1.48;;
19735;SDS011;32064;49.310;8.646;2023-05-15T06:00:28;2.65;;;0.98;;
19735;SDS011;32064;49.310;8.646;2023-05-15T06:02:55;0.63;;;0.63;;
19735;SDS011;32064;49.310;8.646;2023-05-15T06:05:21;1.80;;;1.70;;
19735;SDS011;32064;49.310;8.646;2023-05-15T06:07:47;4.63;;;1.65;;
19735;SDS011;32064;49.310;8.646;2023-05-15T06:10:13;1.17;;;1.08;;
19735;SDS011;32064;49.310;8.646;2023-05-15T06:12:38;3.03;;;1.58;;
19735;SDS011;32064;49.310;8.646;2023-05-15T06:15:04;3.60;;;1.48;;
19735;SDS011;32064;49.310;8.646;2023-05-15T06:17:30;2.60;;;1.58;;
19735;SDS011;32064;49.310;8.646;2023-05-15T06:19:55;1.73;;;1.63;;
19735;SDS011;32064;49.310;8.646;2023-05-15T06:22:21;3.88;;;2.03;;
19735;SDS011;32064;49.310;8.646;2023-05-15T06:24:46;1.25;;;1.15;;
19735;SDS011;32064;49.310;8.646;2023-05-15T06:27:11;2.55;;;1.60;;
19735;SDS011;32064;49.310;8.646;2023-05-15T06:29:37;1.42;;;1.10;;
19735;SDS011;32064;49.310;8.646;2023-05-15T06:32:02;4.93;;;1.83;;
19735;SDS011;32064;49.310;8.646;2023-05-15T06:34:28;1.95;;;1.10;;
19735;SDS011;32064;49.310;8.646;2023-05-15T06:36:53;1.35;;;1.25;;
19735;SDS011;32064;49.310;8.646;2023-05-15T06:39:18;1.02;;;0.95;;
19735;SDS011;32064;49.310;8.646;2023-05-15T06:41:44;1.20;;;1.10;;
19735;SDS011;32064;49.310;8.646;2023-05-15T06:44:09;1.00;;;0.90;;
19735;SDS011;32064;49.310;8.646;2023-05-15T06:46:34;1.42;;;1.30;;
19735;SDS011;32064;49.310;8.646;2023-05-15T06:49:00;1.48;;;1.38;;
19735;SDS011;32064;49.310;8.646;2023-05-15T06:51:25;1.63;;;1.42;;
19735;SDS011;32064;49.310;8.646;2023-05-15T06:53:51;1.75;;;1.65;;
19735;SDS011;32064;49.310;8.646;2023-05-15T06:56:16;1.55;;;1.42;;
19735;SDS011;32064;49.310;8.646;2023-05-15T06:58:42;1.50;;;1.40;;
19735;SDS011;32064;49.310;8.646;2023-05-15T07:01:10;1.88;;;1.27;;
19735;SDS011;32064;49.310;8.646;2023-05-15T07:03:35;1.10;;;1.00;;
19735;SDS011;32064;49.310;8.646;2023-05-15T07:06:01;1.60;;;1.50;;
19735;SDS011;32064;49.310;8.646;2023-05-15T07:08:26;2.55;;;1.40;;
19735;SDS011;32064;49.310;8.646;2023-05-15T07:10:52;1.40;;;1.30;;
19735;SDS011;32064;49.310;8.646;2023-05-15T07:13:18;1.98;;;1.30;;
19735;SDS011;32064;49.310;8.646;2023-05-15T07:15:44;1.73;;;1.23;;
19735;SDS011;32064;49.310;8.646;2023-05-15T07:18:10;5.15;;;1.27;;
19735;SDS011;32064;49.310;8.646;2023-05-15T07:20:35;2.33;;;1.15;;
19735;SDS011;32064;49.310;8.646;2023-05-15T07:23:01;1.38;;;1.25;;
19735;SDS011;32064;49.310;8.646;2023-05-15T07:25:27;1.67;;;1.17;;
19735;SDS011;32064;49.310;8.646;2023-05-15T07:27:52;1.00;;;0.90;;
19735;SDS011;32064;49.310;8.646;2023-05-15T07:30:18;1.40;;;1.30;;
19735;SDS011;32064;49.310;8.646;2023-05-15T07:32:44;2.08;;;1.35;;
19735;SDS011;32064;49.310;8.646;2023-05-15T07:35:09;1.10;;;0.93;;
19735;SDS011;32064;49.310;8.646;2023-05-15T07:37:38;0.80;;;0.80;;
19735;SDS011;32064;49.310;8.646;2023-05-15T07:40:04;2.25;;;1.45;;
19735;SDS011;32064;49.310;8.646;2023-05-15T07:42:30;1.77;;;1.00;;
19735;SDS011;32064;49.310;8.646;2023-05-15T07:44:55;0.88;;;0.88;;
19735;SDS011;32064;49.310;8.646;2023-05-15T07:47:21;0.80;;;0.80;;
19735;SDS011;32064;49.310;8.646;2023-05-15T07:49:46;1.08;;;0.95;;
19735;SDS011;32064;49.310;8.646;2023-05-15T07:52:12;0.80;;;0.73;;
19735;SDS011;32064;49.310;8.646;2023-05-15T07:54:38;1.50;;;1.27;;
19735;SDS011;32064;49.310;8.646;2023-05-15T07:57:05;1.10;;;0.88;;
19735;SDS011;32064;49.310;8.646;2023-05-15T07:59:31;1.52;;;1.35;;
19735;SDS011;32064;49.310;8.646;2023-05-15T08:01:56;1.98;;;0.90;;
19735;SDS011;32064;49.310;8.646;2023-05-15T08:04:22;0.77;;;0.77;;
19735;SDS011;32064;49.310;8.646;2023-05-15T08:06:48;0.98;;;0.98;;
19735;SDS011;32064;49.310;8.646;2023-05-15T08:09:13;1.48;;;1.23;;
19735;SDS011;32064;49.310;8.646;2023-05-15T08:11:38;1.20;;;0.93;;
19735;SDS011;32064;49.310;8.646;2023-05-15T08:14:04;1.20;;;1.13;;
19735;SDS011;32064;49.310;8.646;2023-05-15T08:16:29;1.67;;;1.35;;
19735;SDS011;32064;49.310;8.646;2023-05-15T08:18:55;1.60;;;1.05;;
19735;SDS011;32064;49.310;8.646;2023-05-15T08:21:25;1.15;;;0.82;;
19735;SDS011;32064;49.310;8.646;2023-05-15T08:23:51;1.20;;;0.93;;
19735;SDS011;32064;49.310;8.646;2023-05-15T08:26:17;0.77;;;0.77;;
19735;SDS011;32064;49.310;8.646;2023-05-15T08:28:43;1.40;;;1.00;;
19735;SDS011;32064;49.310;8.646;2023-05-15T08:31:08;1.05;;;0.90;;
19735;SDS011;32064;49.310;8.646;2023-05-15T08:33:34;1.10;;;1.10;;
19735;SDS011;32064;49.310;8.646;2023-05-15T08:35:59;0.63;;;0.63;;
19735;SDS011;32064;49.310;8.646;2023-05-15T08:38:24;1.33;;;1.02;;
19735;SDS011;32064;49.310;8.646;2023-05-15T08:40:50;0.77;;;0.77;;
19735;SDS011;32064;49.310;8.646;2023-05-15T08:43:18;0.60;;;0.60;;
19735;SDS011;32064;49.310;8.646;2023-05-15T08:45:46;1.40;;;1.00;;
19735;SDS011;32064;49.310;8.646;2023-05-15T08:48:13;0.85;;;0.85;;
19735;SDS011;32064;49.310;8.646;2023-05-15T08:50:40;1.13;;;1.02;;
19735;SDS011;32064;49.310;8.646;2023-05-15T08:53:08;2.03;;;1.30;;
19735;SDS011;32064;49.310;8.646;2023-05-15T08:55:35;0.63;;;0.63;;
19735;SDS011;32064;49.310;8.646;2023-05-15T08:58:01;1.10;;;1.00;;
19735;SDS011;32064;49.310;8.646;2023-05-15T09:00:27;0.77;;;0.77;;
19735;SDS011;32064;49.310;8.646;2023-05-15T09:02:53;1.08;;;0.93;;
19735;SDS011;32064;49.310;8.646;2023-05-15T09:05:18;0.90;;;0.80;;
19735;SDS011;32064;49.310;8.646;2023-05-15T09:07:44;2.00;;;1.42;;
19735;SDS011;32064;49.310;8.646;2023-05-15T09:10:12;1.00;;;1.00;;
19735;SDS011;32064;49.310;8.646;2023-05-15T09:12:40;1.30;;;1.05;;
19735;SDS011;32064;49.310;8.646;2023-05-15T09:17:37;1.13;;;0.98;;
19735;SDS011;32064;49.310;8.646;2023-05-15T09:20:03;1.20;;;1.10;;
19735;SDS011;32064;49.310;8.646;2023-05-15T09:22:35;0.80;;;0.80;;
19735;SDS011;32064;49.310;8.646;2023-05-15T09:25:01;0.80;;;0.73;;
19735;SDS011;32064;49.310;8.646;2023-05-15T09:27:28;1.00;;;1.00;;
19735;SDS011;32064;49.310;8.646;2023-05-15T09:29:53;0.75;;;0.75;;
19735;SDS011;32064;49.310;8.646;2023-05-15T09:32:21;1.10;;;0.95;;
19735;SDS011;32064;49.310;8.646;2023-05-15T09:34:51;0.95;;;0.95;;
19735;SDS011;32064;49.310;8.646;2023-05-15T09:37:29;1.10;;;1.00;;
19735;SDS011;32064;49.310;8.646;2023-05-15T09:40:09;0.88;;;0.88;;
19735;SDS011;32064;49.310;8.646;2023-05-15T09:42:35;1.40;;;1.30;;
19735;SDS011;32064;49.310;8.646;2023-05-15T09:45:01;1.27;;;1.17;;
19735;SDS011;32064;49.310;8.646;2023-05-15T09:47:26;1.33;;;0.82;;
19735;SDS011;32064;49.310;8.646;2023-05-15T09:49:52;1.80;;;1.27;;
19735;SDS011;32064;49.310;8.646;2023-05-15T09:52:17;2.00;;;0.90;;
19735;SDS011;32064;49.310;8.646;2023-05-15T09:54:46;1.95;;;1.52;;
19735;SDS011;32064;49.310;8.646;2023-05-15T09:57:12;1.15;;;1.02;;
19735;SDS011;32064;49.310;8.646;2023-05-15T09:59:45;1.08;;;0.88;;
19735;SDS011;32064;49.310;8.646;2023-05-15T10:02:21;1.58;;;1.48;;
19735;SDS011;32064;49.310;8.646;2023-05-15T10:04:54;1.35;;;1.20;;
19735;SDS011;32064;49.310;8.646;2023-05-15T10:07:26;2.25;;;1.20;;
19735;SDS011;32064;49.310;8.646;2023-05-15T10:09:52;1.60;;;1.33;;
19735;SDS011;32064;49.310;8.646;2023-05-15T10:12:18;1.85;;;1.50;;
19735;SDS011;32064;49.310;8.646;2023-05-15T10:14:44;1.55;;;1.33;;
19735;SDS011;32064;49.310;8.646;2023-05-15T10:17:11;1.25;;;1.15;;
19735;SDS011;32064;49.310;8.646;2023-05-15T10:19:38;4.90;;;1.50;;
19735;SDS011;32064;49.310;8.646;2023-05-15T10:22:04;2.47;;;1.67;;
19735;SDS011;32064;49.310;8.646;2023-05-15T10:24:30;1.33;;;1.23;;
19735;SDS011;32064;49.310;8.646;2023-05-15T10:26:57;1.27;;;1.15;;
19735;SDS011;32064;49.310;8.646;2023-05-15T10:29:23;1.45;;;1.23;;
19735;SDS011;32064;49.310;8.646;2023-05-15T10:31:51;1.23;;;1.10;;
19735;SDS011;32064;49.310;8.646;2023-05-15T10:34:17;1.42;;;1.33;;
19735;SDS011;32064;49.310;8.646;2023-05-15T10:36:44;1.88;;;1.33;;
19735;SDS011;32064;49.310;8.646;2023-05-15T10:39:10;1.60;;;1.42;;
19735;SDS011;32064;49.310;8.646;2023-05-15T10:41:37;2.60;;;1.65;;
19735;SDS011;32064;49.310;8.646;2023-05-15T10:44:03;1.00;;;1.00;;
19735;SDS011;32064;49.310;8.646;2023-05-15T10:46:30;1.27;;;1.17;;
19735;SDS011;32064;49.310;8.646;2023-05-15T10:48:59;1.65;;;1.40;;
19735;SDS011;32064;49.310;8.646;2023-05-15T10:51:29;1.30;;;1.20;;
19735;SDS011;32064;49.310;8.646;2023-05-15T10:53:58;1.42;;;1.20;;
19735;SDS011;32064;49.310;8.646;2023-05-15T10:56:28;0.93;;;0.80;;
19735;SDS011;32064;49.310;8.646;2023-05-15T10:58:55;1.55;;;1.30;;
19735;SDS011;32064;49.310;8.646;2023-05-15T11:01:24;1.23;;;1.15;;
19735;SDS011;32064;49.310;8.646;2023-05-15T11:03:58;2.15;;;1.65;;
19735;SDS011;32064;49.310;8.646;2023-05-15T11:06:29;1.55;;;1.17;;
19735;SDS011;32064;49.310;8.646;2023-05-15T11:09:31;0.90;;;0.90;;
19735;SDS011;32064;49.310;8.646;2023-05-15T11:14:16;2.20;;;1.58;;
19735;SDS011;32064;49.310;8.646;2023-05-15T11:24:57;3.60;;;1.30;;
19735;SDS011;32064;49.310;8.646;2023-05-15T11:27:39;2.45;;;1.70;;
19735;SDS011;32064;49.310;8.646;2023-05-15T11:35:23;1.40;;;1.30;;
19735;SDS011;32064;49.310;8.646;2023-05-15T11:48:41;3.80;;;1.73;;
19735;SDS011;32064;49.310;8.646;2023-05-15T11:51:20;2.15;;;1.88;;
19735;SDS011;32064;49.310;8.646;2023-05-15T11:53:51;2.90;;;1.70;;
19735;SDS011;32064;49.310;8.646;2023-05-15T11:56:27;2.63;;;1.80;;
19735;SDS011;32064;49.310;8.646;2023-05-15T11:58:54;1.30;;;1.20;;
19735;SDS011;32064;49.310;8.646;2023-05-15T12:01:21;1.58;;;1.48;;
19735;SDS011;32064;49.310;8.646;2023-05-15T12:03:46;2.90;;;1.95;;
19735;SDS011;32064;49.310;8.646;2023-05-15T12:06:13;1.80;;;1.42;;
19735;SDS011;32064;49.310;8.646;2023-05-15T12:08:38;2.40;;;1.15;;
19735;SDS011;32064;49.310;8.646;2023-05-15T12:11:06;4.43;;;1.88;;
19735;SDS011;32064;49.310;8.646;2023-05-15T12:13:31;3.33;;;2.67;;
19735;SDS011;32064;49.310;8.646;2023-05-15T12:15:58;2.47;;;2.00;;
19735;SDS011;32064;49.310;8.646;2023-05-15T12:18:24;2.20;;;1.92;;
19735;SDS011;32064;49.310;8.646;2023-05-15T12:20:51;1.70;;;1.60;;
19735;SDS011;32064;49.310;8.646;2023-05-15T12:23:19;3.28;;;2.30;;
19735;SDS011;32064;49.310;8.646;2023-05-15T12:25:50;11.02;;;2.95;;
19735;SDS011;32064;49.310;8.646;2023-05-15T12:28:22;3.10;;;2.35;;
19735;SDS011;32064;49.310;8.646;2023-05-15T12:30:48;2.17;;;2.00;;
19735;SDS011;32064;49.310;8.646;2023-05-15T12:33:15;2.75;;;1.77;;
19735;SDS011;32064;49.310;8.646;2023-05-15T12:35:41;1.80;;;1.70;;
19735;SDS011;32064;49.310;8.646;2023-05-15T12:38:08;1.30;;;1.20;;
19735;SDS011;32064;49.310;8.646;2023-05-15T12:40:38;1.20;;;1.10;;
19735;SDS011;32064;49.310;8.646;2023-05-15T12:43:07;1.90;;;1.70;;
19735;SDS011;32064;49.310;8.646;2023-05-15T12:45:33;1.00;;;0.90;;
19735;SDS011;32064;49.310;8.646;2023-05-15T12:48:01;1.95;;;1.70;;
19735;SDS011;32064;49.310;8.646;2023-05-15T12:50:31;1.33;;;1.23;;
19735;SDS011;32064;49.310;8.646;2023-05-15T12:53:02;1.45;;;1.35;;
19735;SDS011;32064;49.310;8.646;2023-05-15T12:55:33;1.35;;;1.25;;
19735;SDS011;32064;49.310;8.646;2023-05-15T12:58:04;2.17;;;1.38;;
19735;SDS011;32064;49.310;8.646;2023-05-15T13:00:32;2.70;;;1.83;;
19735;SDS011;32064;49.310;8.646;2023-05-15T13:02:58;1.58;;;1.48;;
19735;SDS011;32064;49.310;8.646;2023-05-15T13:05:25;1.45;;;1.35;;
19735;SDS011;32064;49.310;8.646;2023-05-15T13:07:51;1.83;;;1.52;;
19735;SDS011;32064;49.310;8.646;2023-05-15T13:10:19;2.42;;;1.20;;
19735;SDS011;32064;49.310;8.646;2023-05-15T13:12:50;1.42;;;1.25;;
19735;SDS011;32064;49.310;8.646;2023-05-15T13:15:38;1.83;;;1.73;;
19735;SDS011;32064;49.310;8.646;2023-05-15T13:18:09;3.70;;;2.70;;
19735;SDS011;32064;49.310;8.646;2023-05-15T13:20:42;2.75;;;1.85;;
19735;SDS011;32064;49.310;8.646;2023-05-15T13:23:10;3.00;;;2.65;;
19735;SDS011;32064;49.310;8.646;2023-05-15T13:25:37;2.22;;;2.03;;
19735;SDS011;32064;49.310;8.646;2023-05-15T13:28:03;3.08;;;2.22;;
19735;SDS011;32064;49.310;8.646;2023-05-15T13:30:33;4.53;;;2.45;;
19735;SDS011;32064;49.310;8.646;2023-05-15T13:32:59;3.08;;;2.40;;
19735;SDS011;32064;49.310;8.646;2023-05-15T13:35:25;7.68;;;2.78;;
19735;SDS011;32064;49.310;8.646;2023-05-15T13:37:51;5.88;;;2.47;;
19735;SDS011;32064;49.310;8.646;2023-05-15T13:40:17;3.83;;;1.38;;
19735;SDS011;32064;49.310;8.646;2023-05-15T13:42:43;5.75;;;2.00;;
19735;SDS011;32064;49.310;8.646;2023-05-15T13:45:10;3.00;;;1.25;;
19735;SDS011;32064;49.310;8.646;2023-05-15T13:47:37;9.52;;;1.95;;
19735;SDS011;32064;49.310;8.646;2023-05-15T13:50:04;1.67;;;1.58;;
19735;SDS011;32064;49.310;8.646;2023-05-15T13:52:33;2.08;;;1.65;;
19735;SDS011;32064;49.310;8.646;2023-05-15T13:54:59;2.72;;;2.28;;
19735;SDS011;32064;49.310;8.646;2023-05-15T13:57:24;2.80;;;1.77;;
19735;SDS011;32064;49.310;8.646;2023-05-15T13:59:50;1.15;;;1.05;;
19735;SDS011;32064;49.310;8.646;2023-05-15T14:02:16;2.35;;;2.15;;
19735;SDS011;32064;49.310;8.646;2023-05-15T14:04:42;1.85;;;1.55;;
19735;SDS011;32064;49.310;8.646;2023-05-15T14:07:07;1.75;;;1.63;;
19735;SDS011;32064;49.310;8.646;2023-05-15T14:09:33;3.85;;;2.13;;
19735;SDS011;32064;49.310;8.646;2023-05-15T14:11:58;3.38;;;2.15;;
19735;SDS011;32064;49.310;8.646;2023-05-15T14:14:23;3.03;;;2.63;;
19735;SDS011;32064;49.310;8.646;2023-05-15T14:16:49;3.53;;;2.45;;
19735;SDS011;32064;49.310;8.646;2023-05-15T14:19:14;4.32;;;1.73;;
19735;SDS011;32064;49.310;8.646;2023-05-15T14:21:40;2.22;;;2.03;;
19735;SDS011;32064;49.310;8.646;2023-05-15T14:24:06;2.20;;;2.00;;
19735;SDS011;32064;49.310;8.646;2023-05-15T14:26:31;1.80;;;1.70;;
19735;SDS011;32064;49.310;8.646;2023-05-15T14:28:57;1.80;;;1.70;;
19735;SDS011;32064;49.310;8.646;2023-05-15T14:31:23;2.40;;;2.17;;
19735;SDS011;32064;49.310;8.646;2023-05-15T14:33:49;1.80;;;1.67;;
19735;SDS011;32064;49.310;8.646;2023-05-15T14:36:14;2.10;;;1.73;;
19735;SDS011;32064;49.310;8.646;2023-05-15T14:38:40;1.50;;;1.40;;
19735;SDS011;32064;49.310;8.646;2023-05-15T14:41:12;2.35;;;1.63;;
19735;SDS011;32064;49.310;8.646;2023-05-15T14:43:38;1.40;;;1.30;;
19735;SDS011;32064;49.310;8.646;2023-05-15T14:46:04;1.65;;;1.55;;
19735;SDS011;32064;49.310;8.646;2023-05-15T14:48:29;1.70;;;1.50;;
19735;SDS011;32064;49.310;8.646;2023-05-15T14:50:55;2.72;;;1.30;;
19735;SDS011;32064;49.310;8.646;2023-05-15T14:53:22;1.27;;;1.17;;
19735;SDS011;32064;49.310;8.646;2023-05-15T14:55:47;2.70;;;1.73;;
19735;SDS011;32064;49.310;8.646;2023-05-15T14:58:12;1.98;;;1.77;;
19735;SDS011;32064;49.310;8.646;2023-05-15T15:00:38;1.25;;;0.90;;
19735;SDS011;32064;49.310;8.646;2023-05-15T15:03:03;1.67;;;1.52;;
19735;SDS011;32064;49.310;8.646;2023-05-15T15:05:29;1.58;;;1.45;;
19735;SDS011;32064;49.310;8.646;2023-05-15T15:08:07;2.25;;;1.67;;
19735;SDS011;32064;49.310;8.646;2023-05-15T15:10:34;1.42;;;1.33;;
19735;SDS011;32064;49.310;8.646;2023-05-15T15:13:02;1.08;;;1.08;;
19735;SDS011;32064;49.310;8.646;2023-05-15T15:15:28;1.65;;;1.45;;
19735;SDS011;32064;49.310;8.646;2023-05-15T15:17:55;1.90;;;1.77;;
19735;SDS011;32064;49.310;8.646;2023-05-15T15:20:24;2.15;;;1.95;;
19735;SDS011;32064;49.310;8.646;2023-05-15T15:22:50;1.65;;;1.55;;
19735;SDS011;32064;49.310;8.646;2023-05-15T15:25:16;1.60;;;1.50;;
19735;SDS011;32064;49.310;8.646;2023-05-15T15:27:43;1.67;;;1.55;;
19735;SDS011;32064;49.310;8.646;2023-05-15T15:30:09;1.73;;;1.55;;
19735;SDS011;32064;49.310;8.646;2023-05-15T15:32:35;2.55;;;1.80;;
19735;SDS011;32064;49.310;8.646;2023-05-15T15:35:01;3.30;;;1.63;;